Time;durP1;ratioP1;P1;durP2;ratioP2;P2;SDS_P1;SDS_P2;PMS_P1;PMS_P2;Temp;Humidity;BMP_temperature;BMP_pressure;BME280_temperature;BME280_humidity;BME280_pressure;Samples;Min_cycle;Max_cycle;Signal;HPM_P1;HPM_P2
2021/12/27 00:01:20;;;;;;;12.45;11.05;;;8.50;99.90;;;;;;5076329;28;20205;-69
2021/12/27 00:03:49;;;;;;;17.45;13.75;;;8.60;99.90;;;;;;5076432;28;20203;-68
2021/12/27 00:06:17;;;;;;;18.48;13.43;;;8.60;99.90;;;;;;5076119;28;20276;-68
2021/12/27 00:08:44;;;;;;;18.85;15.57;;;8.50;99.90;;;;;;5075879;28;20211;-68
2021/12/27 00:11:12;;;;;;;19.58;14.95;;;8.40;99.90;;;;;;5075870;28;20735;-68
2021/12/27 00:13:41;;;;;;;23.05;17.00;;;8.30;99.90;;;;;;5075633;28;20669;-68
2021/12/27 00:16:08;;;;;;;26.20;20.00;;;8.30;99.90;;;;;;5075352;28;20313;-68
2021/12/27 00:18:35;;;;;;;23.67;17.13;;;8.20;99.90;;;;;;5075832;28;20227;-68
2021/12/27 00:21:04;;;;;;;23.90;17.85;;;8.10;99.90;;;;;;5075440;28;20217;-68
2021/12/27 00:23:31;;;;;;;23.48;17.95;;;8.10;99.90;;;;;;5075621;28;20217;-68
2021/12/27 00:25:58;;;;;;;26.90;21.17;;;8.20;99.90;;;;;;5075128;28;20317;-68
2021/12/27 00:28:30;;;;;;;26.88;21.27;;;8.10;99.90;;;;;;5075294;28;20202;-68
2021/12/27 00:30:58;;;;;;;25.88;20.30;;;8.10;99.90;;;;;;5074887;28;20633;-68
2021/12/27 00:33:25;;;;;;;28.10;21.52;;;8.10;99.90;;;;;;5075132;28;20209;-68
2021/12/27 00:35:51;;;;;;;31.02;22.13;;;8.10;99.90;;;;;;5074764;28;20314;-68
2021/12/27 00:38:18;;;;;;;29.35;21.00;;;8.10;99.90;;;;;;5074890;28;20647;-68
2021/12/27 00:40:45;;;;;;;28.40;20.98;;;8.20;99.90;;;;;;5074405;28;20253;-68
2021/12/27 00:43:12;;;;;;;25.92;20.23;;;8.20;99.90;;;;;;5074530;28;20683;-68
2021/12/27 00:45:39;;;;;;;21.60;17.10;;;8.20;99.90;;;;;;5075360;28;20225;-68
2021/12/27 00:48:10;;;;;;;20.33;16.10;;;8.30;99.90;;;;;;5075132;28;20201;-68
2021/12/27 00:50:37;;;;;;;19.52;15.52;;;8.30;99.90;;;;;;5074890;28;20205;-68
2021/12/27 00:53:04;;;;;;;18.08;15.40;;;8.30;99.90;;;;;;5074908;28;20298;-68
2021/12/27 00:55:31;;;;;;;16.92;14.85;;;8.50;99.90;;;;;;5074841;28;20222;-69
2021/12/27 00:57:58;;;;;;;17.27;14.75;;;8.50;99.90;;;;;;5074533;28;20723;-68
2021/12/27 01:00:26;;;;;;;17.88;15.20;;;8.60;99.90;;;;;;5074963;28;20202;-68
2021/12/27 01:02:54;;;;;;;17.27;14.57;;;8.60;99.90;;;;;;5074533;28;20208;-68
2021/12/27 01:05:25;;;;;;;21.40;16.52;;;8.70;99.90;;;;;;5074138;28;20313;-68
2021/12/27 01:07:52;;;;;;;18.63;14.50;;;8.70;99.90;;;;;;5074468;28;20198;-68
2021/12/27 01:13:19;;;;;;;15.00;12.50;;;8.80;99.90;;;;;;5068609;28;20194;-68
2021/12/27 01:15:50;;;;;;;14.30;10.82;;;8.80;99.90;;;;;;5074143;28;20222;-68
2021/12/27 01:18:19;;;;;;;13.48;10.57;;;8.80;99.90;;;;;;5074225;28;20284;-68
2021/12/27 01:20:47;;;;;;;13.70;10.40;;;8.80;99.90;;;;;;5074067;28;20213;-68
2021/12/27 01:23:14;;;;;;;13.38;10.38;;;8.80;99.90;;;;;;5074045;28;20209;-68
2021/12/27 01:25:41;;;;;;;10.70;8.90;;;8.80;99.90;;;;;;5073769;28;20218;-68
2021/12/27 01:28:08;;;;;;;10.75;8.73;;;8.80;99.90;;;;;;5074025;28;20225;-68
2021/12/27 01:30:38;;;;;;;11.07;9.13;;;8.70;99.90;;;;;;5074090;28;20209;-68
2021/12/27 01:33:08;;;;;;;11.27;9.07;;;8.80;99.90;;;;;;5074030;28;20692;-68
2021/12/27 01:35:35;;;;;;;11.25;9.00;;;8.80;99.90;;;;;;5073883;28;20227;-68
2021/12/27 01:38:03;;;;;;;11.05;8.90;;;8.80;99.90;;;;;;5073543;28;20704;-68
2021/12/27 01:40:31;;;;;;;11.35;8.75;;;8.80;99.90;;;;;;5073716;28;20686;-68
2021/12/27 01:43:07;;;;;;;10.20;8.50;;;8.80;99.90;;;;;;5074186;28;20560;-68
2021/12/27 01:45:36;;;;;;;14.20;9.07;;;8.70;99.90;;;;;;5073417;28;20264;-69
2021/12/27 01:48:05;;;;;;;9.23;7.72;;;8.60;99.90;;;;;;5073772;28;20602;-68
2021/12/27 01:50:32;;;;;;;11.38;8.15;;;8.50;99.90;;;;;;5073665;28;20205;-68
2021/12/27 01:52:59;;;;;;;11.80;8.25;;;8.50;99.90;;;;;;5073715;28;20203;-68
2021/12/27 01:55:27;;;;;;;10.77;8.40;;;8.50;99.90;;;;;;5073319;28;20223;-68
2021/12/27 01:57:54;;;;;;;11.95;8.70;;;8.40;99.90;;;;;;5073297;28;20233;-68
2021/12/27 02:00:21;;;;;;;9.15;8.10;;;8.40;99.90;;;;;;5073644;28;20202;-68
2021/12/27 02:02:48;;;;;;;11.00;9.02;;;8.40;99.90;;;;;;5073554;28;20209;-68
2021/12/27 02:05:16;;;;;;;9.93;7.88;;;8.40;99.90;;;;;;5073335;28;20223;-68
2021/12/27 02:07:43;;;;;;;12.48;8.35;;;8.30;99.90;;;;;;5073576;28;20560;-68
2021/12/27 02:10:11;;;;;;;11.38;8.52;;;8.40;99.90;;;;;;5073353;28;20213;-69
2021/12/27 02:12:43;;;;;;;9.75;7.63;;;8.40;99.90;;;;;;5073538;28;20202;-68
2021/12/27 02:15:12;;;;;;;8.10;7.30;;;8.40;99.90;;;;;;5073138;28;20268;-68
2021/12/27 02:17:41;;;;;;;9.50;6.97;;;8.40;99.90;;;;;;5073420;28;20215;-68
2021/12/27 02:20:11;;;;;;;9.13;7.38;;;8.40;99.90;;;;;;5073473;28;20664;-68
2021/12/27 02:22:40;;;;;;;7.68;6.45;;;8.40;99.90;;;;;;5077577;28;20209;-68
2021/12/27 02:25:09;;;;;;;10.45;7.47;;;8.50;99.90;;;;;;5077239;28;20226;-69
2021/12/27 02:27:36;;;;;;;7.90;6.80;;;8.50;99.90;;;;;;5077443;28;20196;-68
2021/12/27 02:30:05;;;;;;;8.38;6.90;;;8.50;99.90;;;;;;5077393;28;20207;-68
2021/12/27 02:32:32;;;;;;;8.30;6.47;;;8.50;99.90;;;;;;5077366;28;20203;-68
2021/12/27 02:34:59;;;;;;;10.10;7.30;;;8.50;99.90;;;;;;5077438;28;20584;-68
2021/12/27 02:37:27;;;;;;;9.45;7.80;;;8.50;99.90;;;;;;5077090;28;20225;-68
2021/12/27 02:39:54;;;;;;;8.32;7.10;;;8.50;99.90;;;;;;5077160;28;20233;-68
2021/12/27 02:42:21;;;;;;;8.02;7.03;;;8.50;99.90;;;;;;5077378;28;20645;-68
2021/12/27 02:44:47;;;;;;;8.00;6.20;;;8.50;99.90;;;;;;5077303;28;20315;-68
2021/12/27 02:47:16;;;;;;;10.00;8.05;;;8.50;99.90;;;;;;5076994;28;20297;-68
2021/12/27 02:49:43;;;;;;;11.70;10.45;;;8.40;99.90;;;;;;5077486;28;20207;-68
2021/12/27 02:52:11;;;;;;;11.80;10.25;;;8.40;99.90;;;;;;5076814;28;20209;-68
2021/12/27 02:54:42;;;;;;;19.20;14.05;;;8.40;99.90;;;;;;5077019;28;20210;-68
2021/12/27 02:57:10;;;;;;;15.20;12.40;;;8.30;99.90;;;;;;5077252;28;20278;-68
2021/12/27 02:59:37;;;;;;;18.20;14.02;;;8.20;99.90;;;;;;5076991;28;20244;-68
2021/12/27 03:02:04;;;;;;;15.57;12.93;;;8.20;99.90;;;;;;5077022;28;20298;-68
2021/12/27 03:04:36;;;;;;;16.75;13.40;;;8.20;99.90;;;;;;5076822;28;20205;-68
2021/12/27 03:07:03;;;;;;;16.48;13.20;;;8.20;99.90;;;;;;5076828;28;20252;-68
2021/12/27 03:09:30;;;;;;;13.73;12.13;;;8.30;99.90;;;;;;5076470;28;20195;-68
2021/12/27 03:11:58;;;;;;;15.52;12.73;;;8.30;99.90;;;;;;5076652;28;20202;-68
2021/12/27 03:14:25;;;;;;;15.40;11.73;;;8.30;99.90;;;;;;5076670;28;20207;-68
2021/12/27 03:16:51;;;;;;;15.35;12.18;;;8.30;99.90;;;;;;5076665;28;20707;-68
2021/12/27 03:19:18;;;;;;;14.13;12.02;;;8.30;99.90;;;;;;5076797;28;20309;-68
2021/12/27 03:21:45;;;;;;;14.48;11.25;;;8.30;99.90;;;;;;5076778;28;20209;-68
2021/12/27 03:24:12;;;;;;;14.43;12.45;;;8.30;99.90;;;;;;5076523;28;20744;-68
2021/12/27 03:26:39;;;;;;;13.65;12.25;;;8.30;99.90;;;;;;5076423;28;20222;-68
2021/12/27 03:29:08;;;;;;;13.48;11.50;;;8.40;99.90;;;;;;5076558;28;20207;-68
2021/12/27 03:31:37;;;;;;;13.65;12.20;;;8.30;99.90;;;;;;5076271;28;20704;-68
2021/12/27 03:34:04;;;;;;;14.60;11.27;;;8.40;99.90;;;;;;5076157;28;20684;-68
2021/12/27 03:36:37;;;;;;;14.93;11.50;;;8.30;99.90;;;;;;5076601;28;20223;-68
2021/12/27 03:39:06;;;;;;;13.73;10.85;;;8.40;99.90;;;;;;5076215;28;20217;-68
2021/12/27 03:41:34;;;;;;;12.70;10.35;;;8.40;99.90;;;;;;5076199;28;20586;-68
2021/12/27 03:44:01;;;;;;;11.70;9.63;;;8.40;99.90;;;;;;5076711;28;20244;-68
2021/12/27 03:46:29;;;;;;;12.63;10.98;;;8.40;99.90;;;;;;5075654;28;20235;-68
2021/12/27 03:48:56;;;;;;;13.45;11.23;;;8.40;99.90;;;;;;5076169;28;20650;-68
2021/12/27 03:51:26;;;;;;;16.13;12.02;;;8.30;99.90;;;;;;5076161;28;20585;-68
2021/12/27 03:53:53;;;;;;;12.80;10.68;;;8.30;99.90;;;;;;5076185;28;20199;-68
2021/12/27 03:56:23;;;;;;;13.65;11.65;;;8.40;99.90;;;;;;5075921;28;20313;-68
2021/12/27 03:58:56;;;;;;;14.60;10.85;;;8.30;99.90;;;;;;5075944;28;20309;-68
2021/12/27 04:01:24;;;;;;;16.25;11.65;;;8.10;99.90;;;;;;5075560;28;20187;-68
2021/12/27 04:03:56;;;;;;;15.02;12.80;;;8.10;99.90;;;;;;5075637;28;20202;-68
2021/12/27 04:06:25;;;;;;;15.82;12.00;;;8.10;99.90;;;;;;5075399;28;20229;-68
2021/12/27 04:08:52;;;;;;;11.90;10.60;;;8.10;99.90;;;;;;5075324;28;20203;-68
2021/12/27 04:11:19;;;;;;;14.80;11.18;;;8.10;99.90;;;;;;5075434;28;20199;-68
2021/12/27 04:13:45;;;;;;;16.02;12.82;;;8.10;99.90;;;;;;5075143;28;20298;-68
2021/12/27 04:16:12;;;;;;;13.60;11.48;;;8.00;99.90;;;;;;5075190;28;20313;-68
2021/12/27 04:18:39;;;;;;;12.73;10.50;;;8.10;99.90;;;;;;5075261;28;20223;-68
2021/12/27 04:21:08;;;;;;;13.88;11.43;;;8.20;99.90;;;;;;5075119;28;20669;-68
2021/12/27 04:23:35;;;;;;;14.40;11.10;;;8.20;99.90;;;;;;5075306;28;20202;-68
2021/12/27 04:26:02;;;;;;;14.40;12.55;;;8.30;99.90;;;;;;5074880;28;20595;-68
2021/12/27 04:28:28;;;;;;;16.55;12.55;;;8.30;99.90;;;;;;5075402;28;20198;-68
2021/12/27 04:30:55;;;;;;;13.73;11.75;;;8.30;99.90;;;;;;5075063;28;20206;-68
2021/12/27 04:33:22;;;;;;;18.02;12.98;;;8.30;99.90;;;;;;5075620;28;20298;-69
2021/12/27 04:35:49;;;;;;;13.90;12.38;;;8.30;99.90;;;;;;5074728;28;20309;-68
2021/12/27 04:38:17;;;;;;;14.60;11.70;;;8.30;99.90;;;;;;5074521;28;20215;-68
2021/12/27 04:40:47;;;;;;;17.63;12.70;;;8.30;99.90;;;;;;5074425;28;20306;-68
2021/12/27 04:43:16;;;;;;;15.38;12.63;;;8.20;99.90;;;;;;5074627;28;20205;-68
2021/12/27 04:45:44;;;;;;;16.58;12.18;;;8.10;99.90;;;;;;5074526;28;20218;-68
2021/12/27 04:48:11;;;;;;;13.32;11.40;;;8.10;99.90;;;;;;5074742;28;20225;-68
2021/12/27 04:50:39;;;;;;;15.77;12.40;;;8.00;99.90;;;;;;5074643;28;20203;-68
2021/12/27 04:53:07;;;;;;;13.23;11.82;;;7.90;99.90;;;;;;5074632;28;20289;-68
2021/12/27 04:55:35;;;;;;;16.42;12.60;;;7.80;99.90;;;;;;5074354;28;20254;-68
2021/12/27 04:58:03;;;;;;;13.90;12.13;;;7.90;99.90;;;;;;5074521;28;20213;-68
2021/12/27 05:00:30;;;;;;;18.25;14.07;;;7.80;99.90;;;;;;5074417;28;20214;-68
2021/12/27 05:02:58;;;;;;;15.95;13.48;;;7.80;99.90;;;;;;5074581;28;20542;-68
2021/12/27 05:05:25;;;;;;;17.15;13.98;;;7.80;99.90;;;;;;5074417;28;20226;-68
2021/12/27 05:07:52;;;;;;;16.55;13.15;;;7.80;99.90;;;;;;5074343;28;20206;-68
2021/12/27 05:10:19;;;;;;;16.23;14.15;;;7.80;99.90;;;;;;5074686;28;20198;-68
2021/12/27 05:12:48;;;;;;;13.40;11.15;;;7.90;99.90;;;;;;5074419;28;20659;-68
2021/12/27 05:15:15;;;;;;;15.68;12.13;;;7.90;99.90;;;;;;5074117;28;20281;-68
2021/12/27 05:17:42;;;;;;;15.90;12.55;;;8.00;99.90;;;;;;5074253;28;20683;-68
2021/12/27 05:20:09;;;;;;;16.50;13.30;;;8.00;99.90;;;;;;5074319;28;20231;-68
2021/12/27 05:22:37;;;;;;;17.15;13.50;;;7.90;99.90;;;;;;5074093;28;20209;-68
2021/12/27 05:25:06;;;;;;;17.52;13.52;;;7.90;99.90;;;;;;5074389;28;20233;-68
2021/12/27 05:27:32;;;;;;;15.52;13.15;;;7.90;99.90;;;;;;5074336;28;20212;-68
2021/12/27 05:30:01;;;;;;;17.33;13.10;;;7.90;99.90;;;;;;5074524;28;20199;-68
2021/12/27 05:32:27;;;;;;;16.30;13.65;;;7.90;99.90;;;;;;5074135;28;20568;-68
2021/12/27 05:34:54;;;;;;;19.25;14.18;;;8.00;99.90;;;;;;5073565;28;20218;-67
2021/12/27 05:37:21;;;;;;;16.85;14.40;;;7.90;99.90;;;;;;5073840;28;20206;-68
2021/12/27 05:39:48;;;;;;;16.73;13.15;;;7.90;99.90;;;;;;5073726;28;20320;-68
2021/12/27 05:42:15;;;;;;;19.38;14.63;;;7.90;99.90;;;;;;5073823;28;20213;-68
2021/12/27 05:44:42;;;;;;;18.48;13.05;;;7.90;99.90;;;;;;5073576;28;20225;-68
2021/12/27 05:47:10;;;;;;;16.25;13.70;;;8.00;99.90;;;;;;5073940;28;20203;-68
2021/12/27 05:49:37;;;;;;;14.20;12.07;;;7.90;99.90;;;;;;5074105;28;20289;-68
2021/12/27 05:52:05;;;;;;;15.45;13.00;;;8.00;99.90;;;;;;5073992;28;20203;-68
2021/12/27 05:54:32;;;;;;;13.50;11.60;;;7.90;99.90;;;;;;5073662;28;20389;-67
2021/12/27 05:56:58;;;;;;;15.98;12.13;;;7.90;99.90;;;;;;5073430;28;20743;-68
2021/12/27 05:59:25;;;;;;;14.73;11.15;;;8.00;99.90;;;;;;5074075;28;20233;-68
2021/12/27 06:01:52;;;;;;;13.57;11.40;;;8.10;99.90;;;;;;5073780;28;20213;-68
2021/12/27 06:04:20;;;;;;;12.35;11.05;;;8.10;99.90;;;;;;5073857;28;20207;-68
2021/12/27 06:06:47;;;;;;;13.40;11.13;;;8.10;99.90;;;;;;5073398;28;20712;-68
2021/12/27 06:09:14;;;;;;;12.02;10.45;;;8.00;99.90;;;;;;5073782;28;20194;-68
2021/12/27 06:11:41;;;;;;;11.23;10.10;;;8.00;99.90;;;;;;5073833;28;20301;-68
2021/12/27 06:14:08;;;;;;;11.32;10.18;;;8.10;99.90;;;;;;5073638;28;20756;-68
2021/12/27 06:16:34;;;;;;;11.60;9.02;;;8.10;99.90;;;;;;5073588;28;20223;-68
2021/12/27 06:19:04;;;;;;;10.35;8.98;;;8.10;99.90;;;;;;5073557;28;20233;-68
2021/12/27 06:21:33;;;;;;;10.07;8.65;;;8.20;99.90;;;;;;5073679;28;20660;-68
2021/12/27 06:24:00;;;;;;;10.73;8.40;;;8.30;99.90;;;;;;5073781;28;20249;-68
2021/12/27 06:26:27;;;;;;;10.38;8.93;;;8.20;99.90;;;;;;5073473;28;20557;-67
2021/12/27 06:28:54;;;;;;;11.00;9.10;;;8.20;99.90;;;;;;5073638;28;20199;-67
2021/12/27 06:31:25;;;;;;;7.80;7.10;;;8.10;99.90;;;;;;5073749;28;20311;-67
2021/12/27 06:33:52;;;;;;;11.68;9.10;;;8.10;99.90;;;;;;5073813;28;20207;-68
2021/12/27 06:36:19;;;;;;;12.30;10.00;;;8.00;99.90;;;;;;5073077;28;20592;-68
2021/12/27 06:38:47;;;;;;;10.90;9.25;;;7.90;99.90;;;;;;5073131;28;20223;-68
2021/12/27 06:41:14;;;;;;;12.10;9.80;;;7.90;99.90;;;;;;5073104;28;20297;-67
2021/12/27 06:43:40;;;;;;;11.02;9.90;;;7.90;99.90;;;;;;5073139;28;20241;-68
2021/12/27 06:46:07;;;;;;;11.32;10.10;;;7.90;99.90;;;;;;5072929;28;20219;-68
2021/12/27 06:48:34;;;;;;;10.82;9.30;;;7.90;99.90;;;;;;5073363;28;20295;-68
2021/12/27 06:51:01;;;;;;;9.40;7.82;;;7.90;99.90;;;;;;5073423;28;20538;-68
2021/12/27 06:53:30;;;;;;;9.48;7.90;;;7.80;99.90;;;;;;5073548;28;20203;-68
2021/12/27 06:55:59;;;;;;;7.25;6.55;;;7.90;99.90;;;;;;5073163;28;20254;-68
2021/12/27 06:58:26;;;;;;;7.43;6.63;;;7.80;99.90;;;;;;5073127;28;20209;-68
2021/12/27 07:00:53;;;;;;;5.53;4.90;;;7.80;99.90;;;;;;5073263;28;20199;-68
2021/12/27 07:03:20;;;;;;;9.80;6.70;;;7.70;99.90;;;;;;5073300;28;20199;-68
2021/12/27 07:05:48;;;;;;;8.25;7.03;;;7.60;99.90;;;;;;5073341;28;20236;-67
2021/12/27 07:08:15;;;;;;;9.15;7.50;;;7.50;99.90;;;;;;5076944;28;20602;-67
2021/12/27 07:10:43;;;;;;;7.82;6.63;;;7.40;99.90;;;;;;5076815;28;20202;-67
2021/12/27 07:13:11;;;;;;;8.75;6.40;;;7.30;99.90;;;;;;5076852;28;20199;-67
2021/12/27 07:15:41;;;;;;;6.10;5.50;;;7.30;99.90;;;;;;5076704;28;20229;-67
2021/12/27 07:18:08;;;;;;;6.60;5.00;;;7.20;99.90;;;;;;5076792;28;20186;-67
2021/12/27 07:20:35;;;;;;;6.10;5.50;;;7.30;99.90;;;;;;5076602;28;20229;-67
2021/12/27 07:23:02;;;;;;;5.20;4.70;;;7.30;99.90;;;;;;5076393;28;20576;-67
2021/12/27 07:25:29;;;;;;;5.85;5.18;;;7.30;99.90;;;;;;5076219;28;20228;-67
2021/12/27 07:27:56;;;;;;;6.10;5.50;;;7.30;99.90;;;;;;5076637;28;20225;-67
2021/12/27 07:30:25;;;;;;;7.80;5.75;;;7.30;99.90;;;;;;5076438;28;20202;-67
2021/12/27 07:32:51;;;;;;;7.47;5.97;;;7.30;99.90;;;;;;5076378;28;20215;-67
2021/12/27 07:35:18;;;;;;;6.00;5.32;;;7.30;99.90;;;;;;5076200;28;20229;-67
2021/12/27 07:37:45;;;;;;;7.00;6.30;;;7.30;99.90;;;;;;5076442;28;20198;-67
2021/12/27 07:40:13;;;;;;;10.27;8.23;;;7.40;99.90;;;;;;5076090;28;20240;-68
2021/12/27 07:42:40;;;;;;;8.85;7.20;;;7.50;99.90;;;;;;5076498;28;20206;-67
2021/12/27 07:45:08;;;;;;;9.05;7.22;;;7.50;99.90;;;;;;5075842;28;20288;-67
2021/12/27 07:47:36;;;;;;;11.18;8.05;;;7.50;99.90;;;;;;5076344;28;20199;-67
2021/12/27 07:50:05;;;;;;;10.30;7.90;;;7.40;99.90;;;;;;5075902;28;20195;-68
2021/12/27 07:52:32;;;;;;;9.95;8.35;;;7.40;99.90;;;;;;5075548;28;20207;-68
2021/12/27 07:54:58;;;;;;;11.70;8.25;;;7.30;99.90;;;;;;5075647;28;20219;-67
2021/12/27 07:57:25;;;;;;;11.23;8.38;;;7.20;99.90;;;;;;5075704;28;20203;-68
2021/12/27 07:59:52;;;;;;;10.15;8.27;;;7.20;99.90;;;;;;5075654;28;20222;-67
2021/12/27 08:02:19;;;;;;;11.02;8.48;;;7.20;99.90;;;;;;5075664;28;20203;-68
2021/12/27 08:04:47;;;;;;;8.88;7.90;;;7.40;99.90;;;;;;5075519;28;20622;-68
2021/12/27 08:07:14;;;;;;;11.35;9.63;;;7.40;99.90;;;;;;5075682;28;20230;-67
2021/12/27 08:09:41;;;;;;;13.77;10.30;;;7.30;99.90;;;;;;5075427;28;20713;-68
2021/12/27 08:12:12;;;;;;;15.75;12.38;;;7.20;99.90;;;;;;5075461;28;20211;-67
2021/12/27 08:14:39;;;;;;;17.45;13.18;;;7.10;99.90;;;;;;5075212;28;20234;-68
2021/12/27 08:17:06;;;;;;;19.52;14.65;;;6.90;99.90;;;;;;5075423;28;20238;-67
2021/12/27 08:19:33;;;;;;;20.63;15.20;;;6.90;99.90;;;;;;5074815;28;20219;-68
2021/12/27 08:22:01;;;;;;;17.40;14.45;;;6.80;99.90;;;;;;5075458;28;20595;-67
2021/12/27 08:24:28;;;;;;;16.50;14.00;;;6.80;99.90;;;;;;5075048;28;20297;-67
2021/12/27 08:26:55;;;;;;;15.00;13.05;;;6.90;99.90;;;;;;5074879;28;20205;-67
2021/12/27 08:29:22;;;;;;;15.05;12.02;;;7.00;99.90;;;;;;5075257;28;20226;-67
2021/12/27 08:31:49;;;;;;;13.93;11.05;;;7.10;99.90;;;;;;5075094;28;20199;-67
2021/12/27 08:34:16;;;;;;;12.30;10.60;;;7.20;99.90;;;;;;5074928;28;20282;-67
2021/12/27 08:36:43;;;;;;;12.57;10.13;;;7.30;99.90;;;;;;5074936;28;20222;-67
2021/12/27 08:39:11;;;;;;;12.50;10.82;;;7.40;99.90;;;;;;5074990;28;20315;-67
2021/12/27 08:41:38;;;;;;;15.95;11.30;;;7.40;99.90;;;;;;5074896;28;20656;-68
2021/12/27 08:44:05;;;;;;;15.15;12.50;;;7.50;99.90;;;;;;5074871;28;20293;-67
2021/12/27 08:46:33;;;;;;;17.20;14.65;;;7.50;99.90;;;;;;5074875;28;20226;-68
2021/12/27 08:49:00;;;;;;;17.48;14.90;;;7.60;99.90;;;;;;5074852;28;20664;-67
2021/12/27 08:51:27;;;;;;;21.08;14.85;;;7.60;99.90;;;;;;5074972;28;20203;-67
2021/12/27 08:53:54;;;;;;;18.77;16.15;;;7.60;99.90;;;;;;5075013;28;20626;-67
2021/12/27 08:56:22;;;;;;;19.05;16.30;;;7.70;99.90;;;;;;5074527;28;20228;-68
2021/12/27 08:58:49;;;;;;;20.08;15.73;;;7.60;99.90;;;;;;5074603;28;20209;-68
2021/12/27 09:01:16;;;;;;;19.90;15.60;;;7.70;99.90;;;;;;5074415;28;20770;-67
2021/12/27 09:03:43;;;;;;;22.40;16.27;;;7.60;99.90;;;;;;5074688;28;20199;-68
2021/12/27 09:06:10;;;;;;;22.52;16.70;;;7.60;99.90;;;;;;5074359;28;20332;-68
2021/12/27 09:08:38;;;;;;;17.10;14.95;;;7.60;99.90;;;;;;5074527;28;20205;-67
2021/12/27 09:11:05;;;;;;;18.65;14.55;;;7.60;99.90;;;;;;5074403;28;20306;-68
2021/12/27 09:13:36;;;;;;;17.83;15.00;;;7.50;99.90;;;;;;5074150;28;20669;-67
2021/12/27 09:16:04;;;;;;;17.23;15.07;;;7.60;99.90;;;;;;5073919;28;20258;-67
2021/12/27 09:18:33;;;;;;;23.50;16.60;;;7.60;99.90;;;;;;5074405;28;20203;-67
2021/12/27 09:21:00;;;;;;;20.10;16.23;;;7.60;99.90;;;;;;5073966;28;20222;-67
2021/12/27 09:23:27;;;;;;;21.02;16.50;;;7.50;99.90;;;;;;5074295;28;20616;-68
2021/12/27 09:25:54;;;;;;;21.23;16.85;;;7.40;99.90;;;;;;5073843;28;20309;-67
2021/12/27 09:28:21;;;;;;;18.92;15.77;;;7.40;99.90;;;;;;5074184;28;20202;-67
2021/12/27 09:30:49;;;;;;;20.60;15.45;;;7.40;99.90;;;;;;5073413;28;20206;-68
2021/12/27 09:33:16;;;;;;;14.75;12.23;;;7.50;99.90;;;;;;5074156;28;20294;-69
2021/12/27 09:35:43;;;;;;;15.60;11.90;;;7.60;99.90;;;;;;5074256;28;20223;-67
2021/12/27 09:38:11;;;;;;;13.13;11.50;;;7.60;99.90;;;;;;5074222;28;20211;-67
2021/12/27 09:40:39;;;;;;;14.90;11.52;;;7.70;99.90;;;;;;5073870;28;20261;-68
2021/12/27 09:43:06;;;;;;;15.35;12.50;;;7.70;99.90;;;;;;5074052;28;20245;-67
2021/12/27 09:45:33;;;;;;;12.10;10.52;;;7.80;99.90;;;;;;5073898;28;20254;-67
2021/12/27 09:48:01;;;;;;;10.43;8.68;;;7.90;99.90;;;;;;5074234;28;20213;-67
2021/12/27 09:50:32;;;;;;;9.85;7.88;;;7.90;99.90;;;;;;5073794;28;20675;-67
2021/12/27 09:52:59;;;;;;;9.60;8.60;;;8.00;99.90;;;;;;5073915;28;20245;-67
2021/12/27 09:55:28;;;;;;;13.32;10.90;;;8.00;99.90;;;;;;5073476;28;20223;-67
2021/12/27 09:57:55;;;;;;;14.63;12.10;;;7.90;99.90;;;;;;5073910;28;20198;-68
2021/12/27 10:00:22;;;;;;;12.82;11.45;;;8.00;99.90;;;;;;5073635;28;20222;-67
2021/12/27 10:02:52;;;;;;;14.95;12.10;;;7.90;99.90;;;;;;5073478;28;20245;-67
2021/12/27 10:05:21;;;;;;;13.23;11.27;;;8.00;99.90;;;;;;5073431;28;20222;-68
2021/12/27 10:07:48;;;;;;;11.63;9.05;;;8.10;99.90;;;;;;5073730;28;20209;-67
2021/12/27 10:10:15;;;;;;;6.80;6.10;;;8.10;99.90;;;;;;5073434;28;20195;-67
2021/12/27 10:12:42;;;;;;;6.68;5.80;;;8.20;99.90;;;;;;5073722;28;20284;-67
2021/12/27 10:15:11;;;;;;;6.75;6.05;;;8.30;99.90;;;;;;5073069;28;20233;-67
2021/12/27 10:17:42;;;;;;;7.53;6.00;;;8.30;99.90;;;;;;5073690;28;20210;-68
2021/12/27 10:20:14;;;;;;;7.63;6.10;;;8.40;99.90;;;;;;5073609;28;20237;-67
2021/12/27 10:22:44;;;;;;;6.72;5.70;;;8.40;99.90;;;;;;5073514;28;20203;-68
2021/12/27 10:25:15;;;;;;;7.72;6.93;;;8.40;99.90;;;;;;5073537;28;20229;-67
2021/12/27 10:27:42;;;;;;;7.15;6.45;;;8.40;99.90;;;;;;5073715;28;20568;-67
2021/12/27 10:30:13;;;;;;;9.27;8.15;;;8.40;99.90;;;;;;5073357;28;20293;-68
2021/12/27 10:32:40;;;;;;;8.20;7.22;;;8.40;99.90;;;;;;5073626;28;20188;-67
2021/12/27 10:35:08;;;;;;;10.50;8.70;;;8.40;99.90;;;;;;5073002;28;20227;-67
2021/12/27 10:37:36;;;;;;;9.98;8.95;;;8.40;99.90;;;;;;5073520;28;20198;-67
2021/12/27 10:40:07;;;;;;;11.30;10.10;;;8.30;99.90;;;;;;5073307;28;20228;-68
2021/12/27 10:42:36;;;;;;;12.65;10.35;;;8.20;99.90;;;;;;5075774;28;20633;-67
2021/12/27 10:45:05;;;;;;;12.32;10.60;;;8.20;99.90;;;;;;5076555;28;20712;-68
2021/12/27 10:47:39;;;;;;;13.43;11.55;;;8.20;99.90;;;;;;5077017;28;20228;-67
2021/12/27 10:50:12;;;;;;;15.68;12.48;;;8.20;99.90;;;;;;5077135;28;20183;-67
2021/12/27 10:52:53;;;;;;;13.25;10.82;;;8.20;99.90;;;;;;5076928;28;20229;-68
2021/12/27 10:55:24;;;;;;;13.75;11.80;;;8.20;99.90;;;;;;5076542;28;20227;-68
2021/12/27 10:57:53;;;;;;;9.02;8.07;;;8.20;99.90;;;;;;5076984;28;20237;-67
2021/12/27 11:00:27;;;;;;;13.13;9.98;;;8.30;99.90;;;;;;5076462;28;20233;-68
2021/12/27 11:02:54;;;;;;;14.63;10.82;;;8.40;99.90;;;;;;5077234;28;20625;-67
2021/12/27 11:05:26;;;;;;;12.25;10.43;;;8.50;99.90;;;;;;5076454;28;20580;-67
2021/12/27 11:07:54;;;;;;;12.82;9.95;;;8.60;99.90;;;;;;5076703;28;20191;-67
2021/12/27 11:10:22;;;;;;;10.65;9.55;;;8.70;99.90;;;;;;5076464;28;20202;-67
2021/12/27 11:12:50;;;;;;;10.88;9.60;;;8.80;99.90;;;;;;5076312;28;20293;-68
2021/12/27 11:15:17;;;;;;;11.15;10.05;;;8.80;99.90;;;;;;5076146;28;20709;-68
2021/12/27 11:17:45;;;;;;;12.90;11.52;;;8.80;99.90;;;;;;5076548;28;20202;-67
2021/12/27 11:20:13;;;;;;;12.00;10.15;;;8.80;99.90;;;;;;5076551;28;20229;-67
2021/12/27 11:22:43;;;;;;;13.23;10.50;;;8.80;99.90;;;;;;5076441;28;20198;-68
2021/12/27 11:25:28;;;;;;;11.98;10.02;;;8.90;99.90;;;;;;5075963;28;20229;-67
2021/12/27 11:27:55;;;;;;;11.05;9.95;;;8.90;99.90;;;;;;5076490;28;20207;-67
2021/12/27 11:30:24;;;;;;;11.90;9.07;;;8.90;99.90;;;;;;5076443;28;20199;-68
2021/12/27 11:33:05;;;;;;;10.55;9.45;;;9.00;99.90;;;;;;5076328;28;20690;-67
2021/12/27 11:35:35;;;;;;;9.18;8.30;;;9.10;99.90;;;;;;5076191;28;20700;-68
2021/12/27 11:38:02;;;;;;;10.35;9.30;;;9.20;99.90;;;;;;5076428;28;20202;-68
2021/12/27 11:40:42;;;;;;;9.93;8.93;;;9.30;99.90;;;;;;5076169;28;20330;-68
2021/12/27 11:43:09;;;;;;;11.85;9.05;;;9.40;99.90;;;;;;5076835;28;20579;-68
2021/12/27 11:45:47;;;;;;;11.00;9.70;;;9.50;99.90;;;;;;5076279;28;20228;-67
2021/12/27 11:48:16;;;;;;;8.98;8.18;;;9.60;99.90;;;;;;5076340;28;20648;-68
2021/12/27 11:51:07;;;;;;;9.23;7.35;;;9.70;99.90;;;;;;5076429;28;20203;-68
2021/12/27 11:53:36;;;;;;;8.15;7.07;;;9.80;99.90;;;;;;5075584;28;20198;-68
2021/12/27 11:56:09;;;;;;;8.55;6.97;;;10.00;99.90;;;;;;5075951;28;20227;-68
2021/12/27 11:58:38;;;;;;;7.82;6.78;;;10.10;99.90;;;;;;5076227;28;20194;-68
2021/12/27 12:01:06;;;;;;;7.40;6.60;;;10.20;99.90;;;;;;5076413;28;20313;-68
2021/12/27 12:03:39;;;;;;;7.20;6.35;;;10.30;99.90;;;;;;5076177;28;20203;-68
2021/12/27 12:06:09;;;;;;;7.57;6.88;;;10.40;99.90;;;;;;5076153;28;20223;-68
2021/12/27 12:08:50;;;;;;;8.40;6.75;;;10.40;99.90;;;;;;5076423;28;20353;-68
2021/12/27 12:11:31;;;;;;;7.85;7.05;;;10.40;99.90;;;;;;5076089;28;20207;-68
2021/12/27 12:13:59;;;;;;;7.88;7.15;;;10.40;99.90;;;;;;5075914;28;20187;-68
2021/12/27 12:16:26;;;;;;;8.88;6.75;;;10.40;99.90;;;;;;5075836;28;20583;-68
2021/12/27 12:19:09;;;;;;;8.77;7.20;;;10.50;99.90;;;;;;5075881;28;20298;-68
2021/12/27 12:21:40;;;;;;;7.35;6.65;;;10.70;99.90;;;;;;5075480;28;20284;-68
2021/12/27 12:24:17;;;;;;;8.00;7.20;;;10.60;99.90;;;;;;5075234;28;20187;-68
2021/12/27 12:26:50;;;;;;;7.47;6.78;;;10.50;99.90;;;;;;5075094;28;20313;-68
2021/12/27 12:29:17;;;;;;;7.50;6.70;;;10.40;99.90;;;;;;5075191;28;20197;-68
2021/12/27 12:31:45;;;;;;;7.57;6.80;;;10.20;99.90;;;;;;5075154;28;20209;-68
2021/12/27 12:34:15;;;;;;;6.80;6.10;;;10.20;99.90;;;;;;5074964;28;20260;-68
2021/12/27 12:36:49;;;;;;;8.30;7.50;;;10.30;99.90;;;;;;5074587;28;20254;-68
2021/12/27 12:39:17;;;;;;;8.68;7.88;;;10.10;99.90;;;;;;5075874;28;20213;-68
2021/12/27 12:41:44;;;;;;;9.73;6.90;;;10.10;99.90;;;;;;5075423;28;20231;-68
2021/12/27 12:44:14;;;;;;;8.07;7.28;;;10.20;99.90;;;;;;5075096;28;20203;-68
2021/12/27 12:46:45;;;;;;;6.20;5.60;;;10.20;99.90;;;;;;5074660;28;20596;-68
2021/12/27 12:49:14;;;;;;;5.78;5.22;;;10.20;99.90;;;;;;5075560;28;20190;-68
2021/12/27 12:51:45;;;;;;;6.50;5.90;;;10.30;99.90;;;;;;5075267;28;20210;-68